aviador You're here:

UBBB Decoded Metar

BAKU in AZERBAIJAN
Report Time2018-04-24 02:30:00
UTC Time2018-04-24 02:56:18
Flight Rules vfr VFR
Wind310° at 14 kt
W.Decomp.*RWY 34: 11.6 kt HW 7.8 kt LCW
RWY 36: 8.2 kt HW 11.3 kt LCW
W.Rank310° ranks 10
Current wind is above 310° avg. (7.7)
Visibility9999 m
Phenomena:N/A
Clouds:Scattered 011 Hf
Broken 100 Hf
Expected CloudBase > 800 ft AGL from Temp-Dew spread
Ceiling10,000 ft
Temp11°C (ISA -4)
Dew Point09°C (88% RH)
AAT5.8°C
QNH1017 hPa
Density Alt-482 ft
Elevation-20 ft
Report Wrong Elevation
Raw Report
METAR UBBB 240230Z 31014KT 9999 SCT011 BKN100 11/09 Q1017 R88/D NOSIG=

Extra information for UBBB:More info

Metar Taf Metar & Taf Last 4 Metars F.Rules Stats Wind Profile Meteogram Temp Stats Airport Information Weather charts Add Link Nearby VenuesMetar ALERT Operation Metar Decoded Social comments